createdAt,value
2023-05-20T00:00:14.851Z,15.47
2023-05-20T00:03:26.475Z,14.17
2023-05-20T00:05:55.825Z,15.49
2023-05-20T00:08:23.737Z,15.56
2023-05-20T00:10:51.719Z,15.45
2023-05-20T00:13:19.691Z,15.53
2023-05-20T00:15:50.574Z,16.38
2023-05-20T00:18:18.471Z,15.09
2023-05-20T00:20:46.548Z,16.37
2023-05-20T00:23:18.404Z,16.36
2023-05-20T00:28:21.211Z,16.95
2023-05-20T00:30:49.073Z,16.22
2023-05-20T00:33:17.005Z,16.20
2023-05-20T00:35:44.919Z,16.20
2023-05-20T00:38:12.718Z,16.85
2023-05-20T00:40:42.497Z,16.83
2023-05-20T00:43:10.765Z,16.28
2023-05-20T00:45:38.805Z,16.32
2023-05-20T00:48:07.340Z,16.73
2023-05-20T00:50:35.404Z,16.70
2023-05-20T00:53:03.280Z,16.64
2023-05-20T00:55:31.249Z,16.38
2023-05-20T00:58:00.825Z,16.60
2023-05-20T01:00:28.805Z,16.60
2023-05-20T01:02:56.771Z,15.47
2023-05-20T01:05:25.135Z,16.56
2023-05-20T01:07:52.954Z,16.53
2023-05-20T01:10:20.915Z,16.29
2023-05-20T01:12:50.318Z,16.44
2023-05-20T01:15:19.551Z,16.47
2023-05-20T01:17:48.395Z,16.45
2023-05-20T01:20:16.731Z,16.44
2023-05-20T01:22:55.033Z,15.57
2023-05-20T01:25:23.011Z,16.39
2023-05-20T01:27:50.891Z,16.38
2023-05-20T01:30:18.778Z,15.89
2023-05-20T01:32:48.529Z,15.86
2023-05-20T01:35:17.930Z,16.24
2023-05-20T01:37:45.788Z,15.99
2023-05-20T01:40:16.340Z,16.18
2023-05-20T01:42:45.683Z,15.96
2023-05-20T01:45:14.888Z,14.88
2023-05-20T01:47:42.707Z,16.10
2023-05-20T01:50:10.976Z,15.79
2023-05-20T01:52:38.786Z,15.52
2023-05-20T01:55:07.480Z,15.35
2023-05-20T01:57:36.721Z,16.03
2023-05-20T02:00:06.210Z,16.04
2023-05-20T02:02:34.218Z,15.16
2023-05-20T02:05:03.081Z,16.00
2023-05-20T02:07:30.876Z,15.68
2023-05-20T02:09:59.146Z,15.21
2023-05-20T02:12:27.181Z,15.97
2023-05-20T02:14:56.540Z,15.96
2023-05-20T02:17:25.617Z,15.67
2023-05-20T02:19:53.459Z,15.10
2023-05-20T02:22:21.627Z,15.47
2023-05-20T02:24:49.660Z,15.89
2023-05-20T02:27:17.498Z,15.76
2023-05-20T02:29:45.672Z,15.88
2023-05-20T02:32:14.968Z,15.89
2023-05-20T02:34:42.790Z,15.57
2023-05-20T02:37:10.581Z,15.78
2023-05-20T02:39:38.657Z,15.87
2023-05-20T02:42:06.814Z,15.85
2023-05-20T02:44:34.736Z,15.57
2023-05-20T02:47:02.509Z,15.48
2023-05-20T02:49:31.839Z,14.80
2023-05-20T02:51:59.674Z,15.83
2023-05-20T02:54:27.468Z,15.32
2023-05-20T02:56:55.388Z,15.80
2023-05-20T02:59:23.380Z,15.36
2023-05-20T03:01:51.279Z,15.28
2023-05-20T03:04:21.895Z,15.75
2023-05-20T03:06:52.404Z,15.18
2023-05-20T03:09:20.901Z,15.68
2023-05-20T03:11:49.366Z,13.88
2023-05-20T03:14:17.491Z,15.62
2023-05-20T03:16:45.533Z,15.64
2023-05-20T03:19:13.464Z,15.40
2023-05-20T03:21:41.585Z,15.63
2023-05-20T03:24:10.886Z,15.46
2023-05-20T03:26:42.984Z,15.61
2023-05-20T03:29:11.277Z,15.16
2023-05-20T03:31:39.104Z,14.46
2023-05-20T03:34:08.677Z,15.57
2023-05-20T03:36:36.586Z,15.55
2023-05-20T03:39:05.179Z,13.60
2023-05-20T03:41:35.441Z,15.43
2023-05-20T03:44:03.286Z,15.55
2023-05-20T03:46:32.707Z,15.60
2023-05-20T03:49:01.772Z,15.60
2023-05-20T03:51:30.118Z,15.62
2023-05-20T03:53:58.009Z,15.51
2023-05-20T03:56:26.492Z,15.40
2023-05-20T03:58:55.839Z,15.43
2023-05-20T04:01:25.726Z,15.41
2023-05-20T04:03:53.666Z,15.34
2023-05-20T04:06:22.531Z,15.61
2023-05-20T04:08:51.061Z,14.90
2023-05-20T04:11:18.889Z,15.64
2023-05-20T04:13:46.801Z,15.28
2023-05-20T04:16:16.035Z,15.65
2023-05-20T04:18:46.139Z,15.55
2023-05-20T04:21:14.359Z,15.70
2023-05-20T04:23:42.644Z,15.72
2023-05-20T04:26:10.760Z,15.74
2023-05-20T04:28:39.083Z,14.64
2023-05-20T04:31:07.223Z,15.33
2023-05-20T04:33:38.541Z,15.46
2023-05-20T04:36:08.011Z,15.82
2023-05-20T04:38:36.105Z,15.32
2023-05-20T04:41:15.053Z,15.08
2023-05-20T04:43:42.972Z,15.87
2023-05-20T04:46:10.890Z,15.86
2023-05-20T04:48:40.054Z,15.93
2023-05-20T04:51:08.999Z,15.55
2023-05-20T04:53:37.057Z,15.88
2023-05-20T04:56:05.653Z,15.87
2023-05-20T05:02:26.681Z,15.96
2023-05-20T05:04:56.536Z,16.18
2023-05-20T05:07:24.436Z,16.20
2023-05-20T05:09:52.637Z,16.30
2023-05-20T05:12:20.573Z,15.79
2023-05-20T05:14:48.394Z,16.46
2023-05-20T05:17:16.230Z,16.54
2023-05-20T05:20:21.835Z,16.63
2023-05-20T05:22:50.884Z,16.30
2023-05-20T05:25:21.061Z,16.71
2023-05-20T05:27:53.134Z,16.50
2023-05-20T05:30:22.076Z,16.03
2023-05-20T05:32:50.244Z,16.80
2023-05-20T05:35:18.293Z,16.63
2023-05-20T05:37:47.536Z,17.08
2023-05-20T05:40:15.698Z,17.15
2023-05-20T05:42:43.531Z,17.08
2023-05-20T05:45:13.340Z,17.08
2023-05-20T05:58:30.441Z,17.37
2023-05-20T06:00:58.500Z,17.40
2023-05-20T06:03:26.573Z,17.82
2023-05-20T06:05:54.678Z,18.04
2023-05-20T06:08:22.642Z,18.12
2023-05-20T06:10:50.502Z,17.70
2023-05-20T06:13:18.756Z,18.35
2023-05-20T06:15:48.187Z,18.50
2023-05-20T06:18:16.603Z,18.57
2023-05-20T06:20:44.329Z,18.66
2023-05-20T06:23:12.319Z,18.65
2023-05-20T06:28:14.470Z,18.93
2023-05-20T06:30:42.295Z,18.73
2023-05-20T06:33:11.610Z,19.00
2023-05-20T06:35:39.484Z,19.00
2023-05-20T06:38:07.337Z,18.68
2023-05-20T06:40:35.279Z,19.04
2023-05-20T06:43:03.577Z,19.03
2023-05-20T06:45:31.500Z,19.13
2023-05-20T06:48:00.505Z,18.21
2023-05-20T06:50:30.242Z,18.63
2023-05-20T06:52:58.133Z,19.21
2023-05-20T06:55:26.408Z,19.44
2023-05-20T06:57:54.272Z,19.52
2023-05-20T07:00:22.118Z,19.59
2023-05-20T07:02:50.329Z,18.34
2023-05-20T07:05:18.189Z,19.74
2023-05-20T07:07:47.692Z,18.28
2023-05-20T07:10:16.696Z,19.70
2023-05-20T07:12:44.575Z,19.03
2023-05-20T07:15:12.794Z,18.69
2023-05-20T07:17:40.824Z,19.74
2023-05-20T07:20:09.750Z,19.80
2023-05-20T07:22:38.235Z,19.42
2023-05-20T07:25:09.485Z,19.98
2023-05-20T07:27:37.583Z,20.08
2023-05-20T07:30:06.070Z,18.08
2023-05-20T07:32:33.879Z,20.11
2023-05-20T07:35:01.789Z,20.20
2023-05-20T07:37:30.134Z,20.55
2023-05-20T07:39:58.111Z,20.68
2023-05-20T07:42:27.442Z,20.85
2023-05-20T07:44:55.270Z,20.47
2023-05-20T07:47:23.054Z,20.90
2023-05-20T07:49:51.909Z,20.88
2023-05-20T07:52:19.834Z,20.45
2023-05-20T07:54:47.938Z,20.86
2023-05-20T07:57:15.842Z,20.35
2023-05-20T07:59:45.264Z,20.45
2023-05-20T08:02:13.187Z,20.63
2023-05-20T08:04:41.287Z,20.53
2023-05-20T08:07:09.262Z,21.20
2023-05-20T08:09:37.159Z,20.89
2023-05-20T08:12:05.926Z,21.39
2023-05-20T08:14:34.225Z,21.50
2023-05-20T08:17:03.436Z,21.65
2023-05-20T08:19:31.424Z,20.01
2023-05-20T08:21:59.527Z,20.74
2023-05-20T08:24:27.623Z,22.37
2023-05-20T08:26:55.752Z,22.06
2023-05-20T08:29:23.944Z,22.45
2023-05-20T08:31:52.502Z,22.85
2023-05-20T08:34:21.762Z,23.01
2023-05-20T08:36:49.622Z,23.33
2023-05-20T08:39:17.496Z,23.40
2023-05-20T08:41:45.380Z,23.44
2023-05-20T08:44:13.606Z,22.06
2023-05-20T08:46:44.804Z,23.38
2023-05-20T08:49:13.124Z,22.08
2023-05-20T08:51:43.050Z,23.35
2023-05-20T08:54:12.227Z,22.85
2023-05-20T08:56:42.046Z,23.52
2023-05-20T08:59:09.986Z,23.21
2023-05-20T09:01:41.623Z,23.26
2023-05-20T09:04:09.822Z,23.24
2023-05-20T09:06:45.693Z,23.24
2023-05-20T09:09:13.905Z,23.41
2023-05-20T09:11:41.938Z,23.35
2023-05-20T09:14:09.952Z,22.92
2023-05-20T09:16:37.929Z,21.55
2023-05-20T09:19:07.452Z,23.86
2023-05-20T09:21:37.338Z,24.33
2023-05-20T09:24:07.309Z,22.81
2023-05-20T09:26:35.261Z,24.45
2023-05-20T09:29:03.205Z,24.67
2023-05-20T09:31:33.880Z,24.94
2023-05-20T09:34:02.061Z,25.11
2023-05-20T09:36:31.733Z,24.61
2023-05-20T09:39:05.108Z,24.80
2023-05-20T09:41:35.531Z,23.97
2023-05-20T09:44:04.211Z,24.23
2023-05-20T09:46:32.848Z,23.95
2023-05-20T09:49:04.999Z,23.98
2023-05-20T09:51:33.430Z,24.04
2023-05-20T09:54:03.548Z,24.21
2023-05-20T09:56:31.987Z,24.07
2023-05-20T09:59:04.668Z,23.53
2023-05-20T10:01:33.587Z,21.80
2023-05-20T10:07:42.990Z,22.29
2023-05-20T10:10:18.917Z,22.65
2023-05-20T10:12:50.273Z,22.95
2023-05-20T10:15:35.219Z,23.61
2023-05-20T10:18:07.387Z,23.14
2023-05-20T10:20:48.548Z,23.52
2023-05-20T10:23:22.493Z,22.86
2023-05-20T10:25:53.866Z,22.55
2023-05-20T10:28:31.836Z,22.47
2023-05-20T10:31:01.165Z,22.38
2023-05-20T10:33:29.357Z,23.16
2023-05-20T10:35:59.795Z,22.57
2023-05-20T10:38:27.663Z,23.31
2023-05-20T10:40:57.466Z,21.07
2023-05-20T10:43:27.650Z,22.71
2023-05-20T10:45:56.334Z,23.51
2023-05-20T10:48:31.495Z,22.17
2023-05-20T10:51:00.430Z,23.22
2023-05-20T10:53:33.275Z,22.86
2023-05-20T10:56:02.227Z,23.34
2023-05-20T10:58:37.852Z,23.64
2023-05-20T11:01:06.142Z,22.31
2023-05-20T11:03:36.300Z,23.24
2023-05-20T11:06:13.102Z,23.55
2023-05-20T11:08:41.231Z,23.60
2023-05-20T11:11:09.607Z,23.46
2023-05-20T11:13:37.528Z,23.55
2023-05-20T11:16:07.090Z,23.56
2023-05-20T11:18:38.635Z,23.72
2023-05-20T11:21:06.712Z,23.83
2023-05-20T11:23:34.682Z,24.06
2023-05-20T11:26:03.599Z,24.45
2023-05-20T11:28:33.289Z,24.98
2023-05-20T11:31:02.249Z,24.71
2023-05-20T11:33:31.260Z,23.80
2023-05-20T11:36:00.454Z,25.49
2023-05-20T11:38:28.310Z,25.61
2023-05-20T11:40:57.121Z,25.62
2023-05-20T11:43:25.377Z,25.54
2023-05-20T11:45:59.286Z,26.00
2023-05-20T11:48:27.455Z,25.06
2023-05-20T11:50:56.658Z,26.29
2023-05-20T11:53:26.247Z,25.53
2023-05-20T11:55:55.101Z,26.06
2023-05-20T11:58:23.860Z,24.87
2023-05-20T12:01:05.184Z,26.38
2023-05-20T12:03:37.917Z,26.90
2023-05-20T12:06:06.272Z,26.69
2023-05-20T12:08:35.653Z,25.98
2023-05-20T12:11:03.572Z,26.50
2023-05-20T12:13:33.116Z,26.29
2023-05-20T12:16:02.699Z,24.99
2023-05-20T12:18:30.600Z,25.99
2023-05-20T12:20:58.892Z,25.81
2023-05-20T12:23:27.357Z,25.49
2023-05-20T12:25:56.913Z,25.46
2023-05-20T12:28:25.395Z,25.83
2023-05-20T12:30:53.694Z,25.53
2023-05-20T12:33:21.807Z,26.25
2023-05-20T12:35:49.784Z,25.27
2023-05-20T12:38:17.720Z,25.00
2023-05-20T12:40:45.623Z,25.46
2023-05-20T12:43:18.128Z,25.21
2023-05-20T12:45:47.019Z,23.97
2023-05-20T12:48:15.050Z,23.91
2023-05-20T12:50:43.225Z,24.94
2023-05-20T12:53:11.232Z,24.45
2023-05-20T12:55:40.549Z,24.96
2023-05-20T12:58:11.383Z,25.45
2023-05-20T13:00:40.831Z,23.79
2023-05-20T13:03:09.198Z,24.72
2023-05-20T13:05:37.310Z,23.93
2023-05-20T13:08:05.755Z,24.37
2023-05-20T13:10:34.473Z,23.57
2023-05-20T13:13:02.827Z,23.75
2023-05-20T13:15:33.702Z,23.18
2023-05-20T13:18:03.692Z,23.35
2023-05-20T13:20:31.664Z,24.16
2023-05-20T13:22:59.792Z,23.94
2023-05-20T13:25:28.054Z,26.03
2023-05-20T13:27:57.009Z,25.55
2023-05-20T13:30:25.171Z,24.75
2023-05-20T13:32:53.237Z,25.52
2023-05-20T13:35:23.232Z,24.15
2023-05-20T13:37:51.382Z,26.13
2023-05-20T13:40:21.703Z,24.18
2023-05-20T13:42:49.792Z,25.55
2023-05-20T13:45:19.035Z,25.42
2023-05-20T13:47:47.393Z,24.04
2023-05-20T13:50:15.918Z,26.39
2023-05-20T13:52:45.895Z,24.73
2023-05-20T13:55:13.855Z,26.47
2023-05-20T13:57:41.803Z,25.06
2023-05-20T14:00:10.756Z,24.76
2023-05-20T14:02:38.971Z,26.40
2023-05-20T14:05:08.508Z,25.21
2023-05-20T14:07:36.549Z,25.54
2023-05-20T14:10:07.078Z,23.63
2023-05-20T14:12:38.796Z,25.03
2023-05-20T14:15:07.956Z,23.89
2023-05-20T14:17:36.450Z,25.28
2023-05-20T14:20:04.559Z,24.81
2023-05-20T14:22:32.501Z,24.14
2023-05-20T14:25:00.500Z,25.18
2023-05-20T14:27:30.891Z,24.44
2023-05-20T14:29:58.984Z,24.75
2023-05-20T14:32:26.958Z,23.58
2023-05-20T14:34:54.951Z,23.22
2023-05-20T14:37:23.279Z,24.95
2023-05-20T14:42:25.117Z,24.96
2023-05-20T14:44:54.344Z,25.47
2023-05-20T14:47:26.707Z,25.08
2023-05-20T14:50:03.256Z,25.16
2023-05-20T14:52:31.187Z,23.96
2023-05-20T14:54:59.328Z,24.93
2023-05-20T14:57:27.717Z,25.21
2023-05-20T14:59:57.412Z,25.20
2023-05-20T15:02:25.454Z,25.20
2023-05-20T15:04:53.719Z,25.17
2023-05-20T15:07:22.533Z,25.14
2023-05-20T15:09:52.354Z,25.14
2023-05-20T15:12:20.128Z,25.01
2023-05-20T15:14:57.205Z,24.78
2023-05-20T15:17:26.753Z,24.46
2023-05-20T15:19:55.533Z,24.37
2023-05-20T15:22:29.385Z,24.40
2023-05-20T15:24:58.355Z,22.58
2023-05-20T15:27:28.141Z,24.17
2023-05-20T15:29:57.694Z,23.96
2023-05-20T15:32:25.704Z,24.10
2023-05-20T15:34:53.861Z,22.79
2023-05-20T15:37:28.909Z,21.41
2023-05-20T15:39:57.096Z,23.48
2023-05-20T15:42:26.957Z,21.95
2023-05-20T15:44:54.858Z,22.31
2023-05-20T15:47:24.297Z,23.63
2023-05-20T15:49:54.876Z,23.15
2023-05-20T15:52:22.882Z,22.38
2023-05-20T15:54:51.012Z,22.67
2023-05-20T15:57:18.807Z,23.30
2023-05-20T15:59:46.670Z,23.26
2023-05-20T16:02:14.630Z,23.23
2023-05-20T16:04:44.016Z,23.21
2023-05-20T16:07:12.155Z,21.36
2023-05-20T16:09:50.124Z,22.44
2023-05-20T16:12:18.065Z,23.13
2023-05-20T16:14:45.887Z,22.83
2023-05-20T16:17:14.466Z,23.13
2023-05-20T16:19:45.074Z,22.80
2023-05-20T16:22:13.562Z,23.02
2023-05-20T16:24:41.780Z,22.86
2023-05-20T16:27:09.877Z,23.14
2023-05-20T16:29:39.981Z,23.22
2023-05-20T16:32:08.341Z,23.31
2023-05-20T16:34:36.396Z,22.67
2023-05-20T16:37:05.674Z,23.20
2023-05-20T16:39:35.190Z,23.34
2023-05-20T16:42:03.594Z,23.26
2023-05-20T16:44:32.092Z,22.96
2023-05-20T16:47:00.052Z,22.94
2023-05-20T16:49:27.999Z,23.21
2023-05-20T16:51:56.081Z,23.21
2023-05-20T16:54:25.770Z,22.66
2023-05-20T16:56:53.825Z,22.89
2023-05-20T16:59:21.885Z,23.15
2023-05-20T17:01:49.588Z,22.93
2023-05-20T17:04:17.553Z,22.67
2023-05-20T17:06:45.291Z,22.99
2023-05-20T17:09:13.313Z,22.75
2023-05-20T17:11:42.424Z,22.43
2023-05-20T17:14:10.358Z,22.14
2023-05-20T17:16:38.586Z,22.74
2023-05-20T17:19:06.519Z,22.46
2023-05-20T17:21:34.655Z,21.90
2023-05-20T17:24:02.583Z,22.28
2023-05-20T17:26:30.731Z,21.94
2023-05-20T17:29:00.100Z,21.50
2023-05-20T17:31:28.373Z,22.05
2023-05-20T17:33:56.654Z,20.53
2023-05-20T17:36:24.659Z,21.86
2023-05-20T17:38:52.675Z,21.49
2023-05-20T17:41:22.048Z,22.20
2023-05-20T17:43:50.029Z,22.16
2023-05-20T17:46:19.718Z,22.15
2023-05-20T17:48:47.744Z,21.29
2023-05-20T17:51:17.159Z,20.00
2023-05-20T17:53:45.205Z,19.03
2023-05-20T17:56:13.250Z,20.91
2023-05-20T17:58:41.353Z,21.00
2023-05-20T18:01:09.881Z,22.15
2023-05-20T18:03:40.647Z,20.80
2023-05-20T18:06:08.844Z,21.45
2023-05-20T18:08:37.087Z,22.02
2023-05-20T18:11:07.002Z,19.97
2023-05-20T18:13:35.152Z,20.80
2023-05-20T18:16:03.314Z,21.28
2023-05-20T18:18:33.029Z,21.86
2023-05-20T18:21:08.836Z,21.81
2023-05-20T18:23:37.210Z,18.87
2023-05-20T18:26:07.113Z,19.88
2023-05-20T18:28:35.367Z,21.09
2023-05-20T18:31:05.093Z,21.00
2023-05-20T18:33:41.688Z,20.82
2023-05-20T18:36:11.052Z,21.45
2023-05-20T18:38:41.779Z,21.48
2023-05-20T18:41:09.842Z,21.28
2023-05-20T18:43:38.208Z,21.26
2023-05-20T18:46:06.040Z,21.28
2023-05-20T18:48:35.681Z,20.64
2023-05-20T18:51:05.307Z,21.11
2023-05-20T18:53:34.987Z,20.48
2023-05-20T18:56:03.532Z,21.03
2023-05-20T18:58:37.800Z,20.70
2023-05-20T19:01:12.197Z,20.86
2023-05-20T19:04:04.389Z,18.22
2023-05-20T19:06:35.320Z,19.20
2023-05-20T19:09:07.815Z,19.93
2023-05-20T19:14:04.521Z,20.58
2023-05-20T19:16:32.605Z,20.52
2023-05-20T19:19:00.503Z,20.14
2023-05-20T19:21:29.605Z,20.06
2023-05-20T19:23:59.524Z,20.35
2023-05-20T19:26:28.757Z,19.98
2023-05-20T19:28:56.730Z,19.80
2023-05-20T19:31:24.921Z,20.23
2023-05-20T19:33:53.510Z,19.73
2023-05-20T19:36:51.711Z,20.16
2023-05-20T19:39:19.627Z,19.41
2023-05-20T19:41:49.270Z,18.84
2023-05-20T19:44:17.152Z,19.82
2023-05-20T19:46:45.091Z,19.23
2023-05-20T19:49:15.571Z,19.89
2023-05-20T19:51:44.788Z,19.51
2023-05-20T19:54:12.584Z,17.93
2023-05-20T19:56:40.565Z,19.46
2023-05-20T19:59:09.791Z,17.61
2023-05-20T20:01:43.269Z,19.80
2023-05-20T20:04:13.998Z,19.73
2023-05-20T20:06:43.090Z,19.43
2023-05-20T20:09:14.682Z,18.88
2023-05-20T20:11:43.322Z,19.67
2023-05-20T20:14:13.889Z,19.64
2023-05-20T20:16:46.555Z,19.33
2023-05-20T20:19:18.905Z,19.58
2023-05-20T20:21:48.250Z,19.54
2023-05-20T20:24:17.517Z,18.53
2023-05-20T20:26:46.975Z,19.05
2023-05-20T20:29:17.116Z,18.81
2023-05-20T20:31:45.315Z,19.41
2023-05-20T20:34:13.267Z,19.07
2023-05-20T20:36:45.089Z,19.34
2023-05-20T20:39:18.887Z,19.04
2023-05-20T20:41:47.611Z,19.29
2023-05-20T20:44:25.655Z,19.25
2023-05-20T20:46:54.929Z,19.23
2023-05-20T20:49:28.385Z,19.02
2023-05-20T20:51:59.752Z,18.73
2023-05-20T20:54:29.932Z,19.17
2023-05-20T20:57:00.209Z,17.72
2023-05-20T20:59:57.619Z,19.15
2023-05-20T21:02:25.439Z,18.91
2023-05-20T21:04:53.430Z,17.32
2023-05-20T21:07:22.082Z,18.89
2023-05-20T21:09:55.076Z,19.12
2023-05-20T21:12:26.581Z,18.45
2023-05-20T21:14:58.773Z,18.84
2023-05-20T21:17:26.607Z,19.20
2023-05-20T21:20:06.892Z,17.69
2023-05-20T21:22:34.726Z,17.93
2023-05-20T21:25:06.555Z,18.92
2023-05-20T21:27:34.415Z,19.28
2023-05-20T21:30:27.395Z,19.30
2023-05-20T21:32:55.546Z,18.86
2023-05-20T21:35:24.522Z,19.04
2023-05-20T21:37:52.306Z,19.21
2023-05-20T21:40:21.204Z,18.27
2023-05-20T21:42:49.806Z,19.13
2023-05-20T21:45:18.472Z,18.81
2023-05-20T21:47:47.949Z,18.88
2023-05-20T21:50:15.800Z,19.04
2023-05-20T21:52:45.228Z,18.87
2023-05-20T21:55:13.358Z,18.97
2023-05-20T21:57:41.575Z,18.92
2023-05-20T22:00:15.118Z,18.28
2023-05-20T22:02:43.198Z,18.13
2023-05-20T22:05:12.959Z,18.57
2023-05-20T22:07:43.185Z,18.58
2023-05-20T22:10:12.949Z,18.74
2023-05-20T22:12:42.394Z,18.40
2023-05-20T22:15:11.021Z,18.71
2023-05-20T22:17:39.184Z,18.29
2023-05-20T22:20:10.444Z,18.23
2023-05-20T22:22:39.901Z,18.60
2023-05-20T22:25:10.877Z,18.60
2023-05-20T22:27:38.769Z,18.59
2023-05-20T22:30:08.590Z,18.55
2023-05-20T22:32:36.937Z,18.32
2023-05-20T22:35:05.130Z,16.72
2023-05-20T22:37:33.641Z,18.51
2023-05-20T22:40:03.280Z,18.45
2023-05-20T22:42:31.034Z,17.76
2023-05-20T22:44:58.974Z,18.26
2023-05-20T22:47:26.814Z,17.87
2023-05-20T22:49:54.739Z,18.46
2023-05-20T22:52:25.657Z,18.25
2023-05-20T22:54:53.477Z,18.44
2023-05-20T22:57:22.780Z,18.43
2023-05-20T22:59:51.998Z,18.45
2023-05-20T23:02:19.730Z,18.35
2023-05-20T23:04:47.630Z,18.48
2023-05-20T23:07:18.888Z,18.52
2023-05-20T23:09:48.680Z,18.11
2023-05-20T23:12:16.828Z,18.10
2023-05-20T23:14:45.932Z,18.53
2023-05-20T23:17:13.716Z,18.53
2023-05-20T23:19:41.486Z,18.52
2023-05-20T23:22:09.421Z,18.23
2023-05-20T23:24:37.350Z,18.50
2023-05-20T23:27:06.253Z,18.52
2023-05-20T23:29:48.887Z,18.21
2023-05-20T23:32:16.649Z,18.47
2023-05-20T23:34:46.448Z,17.99
2023-05-20T23:37:14.169Z,18.03
2023-05-20T23:39:44.294Z,17.52
2023-05-20T23:42:12.153Z,18.45
2023-05-20T23:44:39.973Z,18.46
2023-05-20T23:47:09.684Z,18.12
2023-05-20T23:49:37.785Z,18.13
2023-05-20T23:52:06.203Z,17.98
2023-05-20T23:54:35.232Z,18.44
2023-05-20T23:57:03.282Z,18.45
2023-05-20T23:59:31.148Z,18.22
